Chuathbaluk, Alaska
Current Conditions -  °F | °C
As of 7:55 AM on Thursday 30 Oct 2014 (Local Time) from PASV Reporting Station
Light Snow Light Snow  
Wind Chill: 13°   Ceiling: 1200
Heat Index: 13°   Visibility: 7mi
Dew Point: 10°   Wind: 2mph
Humidity: 90%   Direction: 70°ENE
Pressure: 29.67"   Gusts: NA
Location:  61.576°N, 156.056°W
Report Text: PASV 301555Z AUTO 07002KT 7SM -SN BKN012 M11/M12 A2967 RMK AO2 LTG DSNT NE SHSNB1455E1458 SLP092 P0000 T11081121
Loading
Personal Weather Stations






























Interactive Weather Map
Tropical Storm Tracking
New forecast layout! Learn more

10-Day Weather Forecast

Advertisements
Track Severe Weather on mobile